Time;durP1;ratioP1;P1;durP2;ratioP2;P2;SDS_P1;SDS_P2;PMS_P1;PMS_P2;Temp;Humidity;BMP_temperature;BMP_pressure;BME280_temperature;BME280_humidity;BME280_pressure;Samples;Min_cycle;Max_cycle;Signal;HPM_P1;HPM_P2
2022/03/08 00:00:57;;;;;;;71.63;10.83;;;2.00;1.00;;;;;;4974486;28;20756;-88
2022/03/08 00:03:24;;;;;;;73.80;10.10;;;1.90;1.00;;;;;;4989746;28;20442;-88
2022/03/08 00:05:50;;;;;;;72.85;10.05;;;2.00;1.00;;;;;;4974253;28;20651;-88
2022/03/08 00:08:16;;;;;;;68.25;9.18;;;2.00;1.00;;;;;;4974419;28;20697;-89
2022/03/08 00:10:42;;;;;;;70.95;8.98;;;2.00;1.00;;;;;;4974229;28;20253;-88
2022/03/08 00:13:07;;;;;;;70.83;9.20;;;2.00;1.00;;;;;;4978208;28;20253;-88
2022/03/08 00:15:36;;;;;;;73.20;9.00;;;2.00;1.00;;;;;;4977998;28;20894;-88
2022/03/08 00:18:02;;;;;;;70.18;9.15;;;2.00;1.00;;;;;;4976966;28;20669;-88
2022/03/08 00:20:28;;;;;;;71.80;9.05;;;2.00;1.00;;;;;;4978181;28;20168;-88
2022/03/08 00:23:00;;;;;;;73.53;8.93;;;2.00;1.00;;;;;;4978622;28;20508;-88
2022/03/08 00:25:26;;;;;;;72.35;10.15;;;2.00;1.00;;;;;;4978075;28;20717;-88
2022/03/08 00:27:52;;;;;;;70.18;8.57;;;2.00;1.00;;;;;;4978525;28;20167;-88
2022/03/08 00:30:21;;;;;;;73.70;9.50;;;2.00;1.00;;;;;;4977987;28;20591;-88
2022/03/08 00:32:47;;;;;;;74.15;8.95;;;1.90;1.00;;;;;;4977893;28;20414;-89
2022/03/08 00:35:13;;;;;;;70.05;8.70;;;1.90;1.00;;;;;;4976922;28;20199;-88
2022/03/08 00:37:39;;;;;;;70.82;9.90;;;1.90;1.00;;;;;;4978022;28;20258;-88
2022/03/08 00:40:10;;;;;;;72.95;11.45;;;1.90;1.00;;;;;;4977621;28;20238;-88
2022/03/08 00:42:41;;;;;;;73.68;9.50;;;1.90;1.00;;;;;;4976649;28;20187;-89
2022/03/08 00:45:11;;;;;;;70.82;10.43;;;1.80;1.00;;;;;;4976397;28;20203;-88
2022/03/08 00:47:41;;;;;;;75.63;9.95;;;1.80;1.00;;;;;;4976401;28;20190;-88
2022/03/08 00:50:15;;;;;;;73.13;10.10;;;1.80;1.00;;;;;;4976537;28;20160;-88
2022/03/08 00:52:41;;;;;;;76.25;10.90;;;1.90;1.00;;;;;;4977149;28;20170;-88
2022/03/08 00:55:08;;;;;;;72.90;9.37;;;1.90;1.00;;;;;;4977773;28;20523;-88
2022/03/08 00:57:37;;;;;;;71.05;9.35;;;1.90;1.00;;;;;;4977334;28;21008;-88
2022/03/08 01:00:12;;;;;;;75.88;9.73;;;1.90;1.00;;;;;;4977604;28;20639;-88
2022/03/08 01:02:38;;;;;;;70.85;9.15;;;1.80;1.00;;;;;;4975956;28;20538;-88
2022/03/08 01:05:04;;;;;;;71.90;9.33;;;1.80;1.00;;;;;;4977855;28;20191;-88
2022/03/08 01:07:30;;;;;;;72.03;9.45;;;1.70;1.00;;;;;;4977238;28;20179;-88
2022/03/08 01:09:58;;;;;;;72.33;9.30;;;1.80;1.00;;;;;;4977268;28;20163;-88
2022/03/08 01:12:25;;;;;;;74.15;9.52;;;1.70;1.00;;;;;;4977856;28;20402;-88
2022/03/08 01:14:53;;;;;;;69.15;9.05;;;1.80;1.00;;;;;;4977260;28;20167;-88
2022/03/08 01:17:22;;;;;;;71.47;9.93;;;1.70;1.00;;;;;;4977078;28;20183;-88
2022/03/08 01:19:48;;;;;;;70.38;9.13;;;1.70;1.00;;;;;;4977086;28;20171;-88
2022/03/08 01:22:13;;;;;;;74.27;10.20;;;1.70;1.00;;;;;;4976474;28;20168;-88
2022/03/08 01:24:39;;;;;;;70.20;8.17;;;1.70;1.00;;;;;;4975981;28;20245;-88
2022/03/08 01:27:22;;;;;;;76.37;9.37;;;1.70;1.00;;;;;;4976832;28;20266;-88
2022/03/08 01:29:48;;;;;;;72.47;9.45;;;1.70;1.00;;;;;;4992563;28;20163;-88
2022/03/08 01:32:17;;;;;;;73.83;10.00;;;1.70;1.60;;;;;;4976913;28;20234;-88
2022/03/08 01:34:45;;;;;;;73.00;11.07;;;1.70;3.40;;;;;;4975541;28;20222;-88
2022/03/08 01:37:12;;;;;;;73.65;11.32;;;1.70;4.30;;;;;;4976851;28;20266;-88
2022/03/08 01:39:43;;;;;;;72.20;9.35;;;1.70;5.90;;;;;;4975378;28;20183;-88
2022/03/08 01:42:29;;;;;;;73.55;11.48;;;1.70;6.20;;;;;;4975447;28;20643;-88
2022/03/08 01:44:55;;;;;;;77.00;11.00;;;1.80;7.70;;;;;;4975299;28;20203;-88
2022/03/08 01:47:26;;;;;;;71.97;8.77;;;1.80;6.90;;;;;;4975298;28;20555;-88
2022/03/08 01:49:56;;;;;;;71.93;11.23;;;1.70;8.00;;;;;;4976996;28;20230;-88
2022/03/08 01:52:24;;;;;;;69.70;9.50;;;1.80;7.60;;;;;;4976977;28;20570;-88
2022/03/08 01:54:50;;;;;;;72.18;9.75;;;1.70;8.50;;;;;;4976292;28;20566;-88
2022/03/08 01:57:19;;;;;;;70.43;10.40;;;1.80;7.80;;;;;;4976236;28;20195;-88
2022/03/08 01:59:45;;;;;;;70.47;10.50;;;1.80;9.50;;;;;;4976427;28;20662;-88
2022/03/08 02:02:13;;;;;;;73.30;9.98;;;1.70;12.70;;;;;;4959435;28;20299;-88
2022/03/08 02:04:39;;;;;;;79.97;9.85;;;1.70;11.70;;;;;;4976414;28;20195;-88
2022/03/08 02:07:08;;;;;;;73.07;11.57;;;1.60;11.40;;;;;;4976257;28;20253;-88
2022/03/08 02:09:38;;;;;;;70.97;10.23;;;1.60;12.20;;;;;;4976186;28;20159;-88
2022/03/08 02:12:05;;;;;;;72.38;10.98;;;1.50;12.00;;;;;;4976400;28;20589;-88
2022/03/08 02:14:34;;;;;;;71.28;10.65;;;1.40;11.40;;;;;;4976758;28;20191;-88
2022/03/08 02:17:00;;;;;;;70.15;9.63;;;1.40;10.90;;;;;;4976025;28;20555;-88
2022/03/08 02:19:26;;;;;;;70.77;10.97;;;1.40;11.80;;;;;;4976328;28;20167;-88
2022/03/08 02:21:51;;;;;;;73.23;10.83;;;1.40;13.70;;;;;;4976040;28;20174;-88
2022/03/08 02:24:18;;;;;;;71.47;11.00;;;1.30;14.30;;;;;;4976077;28;20439;-88
2022/03/08 02:26:45;;;;;;;74.05;10.65;;;1.40;13.90;;;;;;4975956;28;20473;-88
2022/03/08 02:29:11;;;;;;;74.35;10.15;;;1.40;14.60;;;;;;4975833;28;20250;-88
2022/03/08 02:31:37;;;;;;;72.80;8.93;;;1.30;14.90;;;;;;4975868;28;20255;-88
2022/03/08 02:34:03;;;;;;;72.38;9.80;;;1.30;14.90;;;;;;4989751;28;20842;-88
2022/03/08 02:36:30;;;;;;;73.25;9.82;;;1.30;14.40;;;;;;4990684;28;20195;-88
2022/03/08 02:38:56;;;;;;;69.93;9.25;;;1.30;16.10;;;;;;4974476;28;20198;-88
2022/03/08 02:41:22;;;;;;;70.07;8.87;;;1.40;15.80;;;;;;4974384;28;20261;-88
2022/03/08 02:43:48;;;;;;;73.47;10.32;;;1.40;15.60;;;;;;4975573;28;20443;-88
2022/03/08 02:46:14;;;;;;;70.30;9.20;;;1.50;15.90;;;;;;4975516;28;20551;-88
2022/03/08 02:48:40;;;;;;;72.20;9.27;;;1.50;17.30;;;;;;4990369;28;20167;-88
2022/03/08 02:51:05;;;;;;;72.40;8.37;;;1.50;16.50;;;;;;4975402;28;20167;-88
2022/03/08 02:53:31;;;;;;;69.70;8.73;;;1.50;17.70;;;;;;4975350;28;20202;-88
2022/03/08 02:55:57;;;;;;;74.28;9.10;;;1.40;20.30;;;;;;4975586;28;20701;-88
2022/03/08 02:58:23;;;;;;;68.60;7.33;;;1.40;18.30;;;;;;4975316;28;20175;-88
2022/03/08 03:00:49;;;;;;;72.27;8.97;;;1.30;21.10;;;;;;4975520;28;20182;-89
2022/03/08 03:03:14;;;;;;;72.83;9.87;;;1.30;21.60;;;;;;4974169;28;20241;-88
2022/03/08 03:05:40;;;;;;;71.47;9.20;;;1.40;21.70;;;;;;4975183;28;20407;-88
2022/03/08 03:08:06;;;;;;;73.03;7.93;;;1.20;23.10;;;;;;4975348;28;20171;-89
2022/03/08 03:10:32;;;;;;;68.95;9.00;;;1.10;26.90;;;;;;4973898;28;20635;-88
2022/03/08 03:13:01;;;;;;;72.80;10.47;;;1.00;29.60;;;;;;4973807;28;20171;-88
2022/03/08 03:15:29;;;;;;;69.13;9.40;;;0.90;32.20;;;;;;4974845;28;20902;-88
2022/03/08 03:17:55;;;;;;;70.50;9.75;;;0.90;32.10;;;;;;4974972;28;20255;-88
2022/03/08 03:20:22;;;;;;;72.13;9.00;;;1.00;31.80;;;;;;4973713;28;20202;-88
2022/03/08 03:22:49;;;;;;;72.88;9.30;;;1.00;31.80;;;;;;4974808;28;20445;-88
2022/03/08 03:25:15;;;;;;;71.45;9.55;;;1.00;32.20;;;;;;4973533;28;20667;-88
2022/03/08 03:27:42;;;;;;;71.15;9.98;;;1.10;31.70;;;;;;4974472;28;20298;-88
2022/03/08 03:30:11;;;;;;;69.70;9.02;;;1.20;30.30;;;;;;4973543;28;20178;-88
2022/03/08 03:32:37;;;;;;;70.63;9.07;;;1.10;31.30;;;;;;4973443;28;20171;-88
2022/03/08 03:35:04;;;;;;;71.27;9.20;;;1.10;30.60;;;;;;4973430;28;20669;-88
2022/03/08 03:37:30;;;;;;;69.72;9.60;;;1.10;32.40;;;;;;4975056;28;20426;-88
2022/03/08 03:39:56;;;;;;;72.57;9.30;;;1.00;32.50;;;;;;4973259;28;20595;-88
2022/03/08 03:42:22;;;;;;;77.03;9.30;;;0.90;30.50;;;;;;4974878;28;20410;-88
2022/03/08 03:44:48;;;;;;;69.57;9.30;;;0.90;32.50;;;;;;4974504;28;20187;-88
2022/03/08 03:47:13;;;;;;;70.10;9.10;;;0.90;31.60;;;;;;4973225;28;20245;-88
2022/03/08 03:49:39;;;;;;;68.87;8.40;;;1.00;29.20;;;;;;4989662;28;20403;-88
2022/03/08 03:52:05;;;;;;;69.40;8.87;;;1.00;28.20;;;;;;4974458;28;20183;-88
2022/03/08 03:54:31;;;;;;;70.90;9.15;;;1.00;28.90;;;;;;4974677;28;20274;-88
2022/03/08 03:57:00;;;;;;;71.38;8.63;;;1.00;27.60;;;;;;4974357;28;20246;-88
2022/03/08 03:59:28;;;;;;;70.20;7.88;;;1.00;28.00;;;;;;4989279;28;20594;-88
2022/03/08 04:01:54;;;;;;;73.05;8.55;;;1.00;28.50;;;;;;4974340;28;20171;-88
2022/03/08 04:04:20;;;;;;;69.73;10.10;;;1.10;28.50;;;;;;4989231;28;20234;-88
2022/03/08 04:06:45;;;;;;;71.40;9.07;;;1.10;27.20;;;;;;4989151;28;20282;-88
2022/03/08 04:09:13;;;;;;;71.70;8.10;;;1.10;26.90;;;;;;4973035;28;20635;-88
2022/03/08 04:11:39;;;;;;;69.45;8.43;;;1.10;26.30;;;;;;4973032;28;20226;-88
2022/03/08 04:14:05;;;;;;;70.93;9.37;;;1.10;26.40;;;;;;4973248;28;20175;-88
2022/03/08 04:16:31;;;;;;;71.10;9.85;;;1.10;27.10;;;;;;4974192;28;20448;-88
2022/03/08 04:18:56;;;;;;;70.50;10.40;;;1.10;27.30;;;;;;4974330;28;20639;-88
2022/03/08 04:21:22;;;;;;;71.63;8.40;;;1.10;26.10;;;;;;4974540;28;20254;-88
2022/03/08 04:23:47;;;;;;;72.60;9.87;;;1.10;25.70;;;;;;4972824;28;20701;-88
2022/03/08 04:26:13;;;;;;;72.80;9.27;;;1.10;25.40;;;;;;4974195;28;20183;-88
2022/03/08 04:28:39;;;;;;;72.27;9.90;;;1.10;26.00;;;;;;4974500;28;20170;-88
2022/03/08 04:31:04;;;;;;;71.53;10.00;;;1.10;25.20;;;;;;4974200;28;20163;-88
2022/03/08 04:33:30;;;;;;;71.13;10.20;;;1.10;26.10;;;;;;4974163;28;20171;-88
2022/03/08 04:35:56;;;;;;;73.33;9.87;;;1.20;25.30;;;;;;4974172;28;20198;-88
2022/03/08 04:38:21;;;;;;;72.57;9.87;;;1.20;26.30;;;;;;4974073;28;20175;-88
2022/03/08 04:40:47;;;;;;;74.67;9.67;;;1.20;26.80;;;;;;4974059;28;20171;-88
2022/03/08 04:43:13;;;;;;;70.73;10.20;;;1.10;27.10;;;;;;4974312;28;20403;-88
2022/03/08 04:45:38;;;;;;;71.13;10.27;;;1.10;27.40;;;;;;4973890;28;20530;-88
2022/03/08 04:48:05;;;;;;;73.77;9.87;;;1.00;28.10;;;;;;4973994;28;20170;-88
2022/03/08 04:50:30;;;;;;;72.25;10.15;;;1.00;28.20;;;;;;4972749;28;20164;-88
2022/03/08 04:52:56;;;;;;;69.77;8.30;;;1.10;28.20;;;;;;4974761;28;20194;-88
2022/03/08 04:55:22;;;;;;;69.20;8.70;;;1.20;26.80;;;;;;4973168;28;20164;-88
2022/03/08 04:57:48;;;;;;;75.00;8.40;;;1.20;27.30;;;;;;4976169;28;20246;-88
2022/03/08 05:00:16;;;;;;;68.47;8.37;;;1.10;28.90;;;;;;4977494;28;20398;-88
2022/03/08 05:02:43;;;;;;;79.15;10.15;;;1.10;29.30;;;;;;4976481;28;20407;-88
2022/03/08 05:05:13;;;;;;;69.63;9.32;;;1.10;29.10;;;;;;4975995;28;20214;-88
2022/03/08 05:07:39;;;;;;;71.70;10.57;;;1.10;27.90;;;;;;5048908;23;20223;-86
2022/03/08 05:10:07;;;;;;;71.22;9.98;;;1.10;28.40;;;;;;5005757;28;20158;-86
2022/03/08 05:12:33;;;;;;;70.07;9.98;;;1.10;27.60;;;;;;5005514;28;20170;-86
2022/03/08 05:14:59;;;;;;;70.60;10.30;;;1.10;27.40;;;;;;5005491;28;20238;-86
2022/03/08 05:17:25;;;;;;;71.28;9.15;;;1.20;26.50;;;;;;5006412;28;20578;-86
2022/03/08 05:19:51;;;;;;;73.75;10.00;;;1.20;25.70;;;;;;5005543;28;20193;-86
2022/03/08 05:22:17;;;;;;;69.90;9.70;;;1.20;25.00;;;;;;5002374;28;20637;-86
2022/03/08 05:24:43;;;;;;;70.25;8.93;;;1.20;25.40;;;;;;5003940;28;20872;-86
2022/03/08 05:27:09;;;;;;;72.17;9.53;;;1.20;26.10;;;;;;5004048;28;20195;-86
2022/03/08 05:29:35;;;;;;;73.80;8.95;;;1.20;26.70;;;;;;5004320;28;20174;-86
2022/03/08 05:32:01;;;;;;;76.73;8.80;;;1.10;26.40;;;;;;5005436;28;20177;-86
2022/03/08 05:34:27;;;;;;;69.82;8.50;;;1.10;26.00;;;;;;5004976;28;20405;-86
2022/03/08 05:36:53;;;;;;;68.90;8.30;;;1.00;25.90;;;;;;5005237;28;20629;-86
2022/03/08 05:39:19;;;;;;;70.17;9.07;;;1.00;26.00;;;;;;5003856;28;20174;-86
2022/03/08 05:41:44;;;;;;;71.00;8.57;;;1.00;25.60;;;;;;5003369;28;20243;-86
2022/03/08 05:44:10;;;;;;;72.20;10.93;;;1.00;25.50;;;;;;5004740;28;20809;-86
2022/03/08 05:46:36;;;;;;;73.40;9.93;;;0.90;26.20;;;;;;5004777;28;20182;-86
2022/03/08 05:49:02;;;;;;;71.13;10.10;;;0.90;26.50;;;;;;5002710;28;20511;-86
2022/03/08 05:51:28;;;;;;;74.43;10.23;;;0.90;26.00;;;;;;5003796;28;20456;-86
2022/03/08 05:53:54;;;;;;;70.93;9.30;;;0.90;25.60;;;;;;5002969;28;20174;-86
2022/03/08 05:56:20;;;;;;;72.27;10.20;;;1.00;25.60;;;;;;5005074;28;20261;-86
2022/03/08 05:58:45;;;;;;;74.20;9.27;;;0.90;24.80;;;;;;5004099;28;20216;-86
2022/03/08 06:01:11;;;;;;;70.87;9.20;;;0.90;24.40;;;;;;5002499;28;20410;-86
2022/03/08 06:03:37;;;;;;;69.20;9.20;;;0.90;24.80;;;;;;5002860;28;20197;-86
2022/03/08 06:06:03;;;;;;;72.37;9.00;;;0.90;25.20;;;;;;5003757;28;20186;-86
2022/03/08 06:08:29;;;;;;;71.57;9.83;;;0.90;24.70;;;;;;5004945;28;20471;-86
2022/03/08 06:10:55;;;;;;;74.07;9.73;;;0.90;24.90;;;;;;5004420;28;20448;-86
2022/03/08 06:13:20;;;;;;;70.60;9.50;;;1.00;23.50;;;;;;5003667;28;20213;-86
2022/03/08 06:15:46;;;;;;;73.60;9.70;;;1.00;23.00;;;;;;5003646;28;20187;-88
2022/03/08 06:18:12;;;;;;;71.27;8.77;;;0.90;23.60;;;;;;5006468;28;20206;-86
2022/03/08 06:20:37;;;;;;;75.07;10.40;;;1.00;23.90;;;;;;5006750;28;20170;-85
2022/03/08 06:23:03;;;;;;;70.38;9.77;;;1.00;22.40;;;;;;5005608;28;20170;-86
2022/03/08 06:25:29;;;;;;;78.40;8.70;;;1.00;22.30;;;;;;5004743;28;20173;-86
2022/03/08 06:27:54;;;;;;;71.70;9.50;;;1.00;23.10;;;;;;5003161;28;20257;-86
2022/03/08 06:30:20;;;;;;;70.77;9.70;;;1.00;22.60;;;;;;5002511;28;20634;-86
2022/03/08 06:32:46;;;;;;;70.47;8.93;;;1.00;23.10;;;;;;5003199;28;20165;-86
2022/03/08 06:35:13;;;;;;;69.80;8.30;;;1.00;21.80;;;;;;5001929;28;20170;-87
2022/03/08 06:37:39;;;;;;;75.63;9.80;;;1.00;22.10;;;;;;5001231;28;20218;-86
2022/03/08 06:40:06;;;;;;;71.17;9.30;;;1.10;22.70;;;;;;5002909;28;20175;-86
2022/03/08 06:42:32;;;;;;;72.38;8.70;;;1.10;22.10;;;;;;5001127;28;20440;-86
2022/03/08 06:44:57;;;;;;;69.67;9.20;;;1.10;22.20;;;;;;5000778;28;20205;-86
2022/03/08 06:47:23;;;;;;;75.50;9.57;;;1.10;21.20;;;;;;5001082;28;20434;-86
2022/03/08 06:49:49;;;;;;;70.93;8.90;;;1.10;21.90;;;;;;5000586;28;20235;-86
2022/03/08 06:52:15;;;;;;;72.40;10.63;;;1.20;21.30;;;;;;5003617;28;20581;-86
2022/03/08 06:54:41;;;;;;;72.38;10.23;;;1.20;22.10;;;;;;5002614;28;20209;-87
2022/03/08 06:57:07;;;;;;;70.40;10.23;;;1.30;22.00;;;;;;5003284;28;20190;-87
2022/03/08 06:59:32;;;;;;;70.68;8.52;;;1.30;20.90;;;;;;5002248;28;20159;-86
2022/03/08 07:01:59;;;;;;;73.40;9.90;;;1.40;20.20;;;;;;5001698;28;20657;-86
2022/03/08 07:04:24;;;;;;;71.68;9.45;;;1.50;19.00;;;;;;5002334;28;20865;-87
2022/03/08 07:06:50;;;;;;;71.37;9.63;;;1.50;18.70;;;;;;5002245;28;20221;-86
2022/03/08 07:09:20;;;;;;;69.43;9.00;;;1.60;15.70;;;;;;5001138;28;20445;-86
2022/03/08 07:11:46;;;;;;;71.32;11.30;;;1.70;13.10;;;;;;5002535;28;20190;-86
2022/03/08 07:14:15;;;;;;;71.23;10.33;;;1.80;8.80;;;;;;5003391;28;20174;-87
2022/03/08 07:16:42;;;;;;;71.85;9.95;;;1.90;5.60;;;;;;5003056;28;20193;-87
2022/03/08 07:19:08;;;;;;;71.35;8.70;;;1.90;4.90;;;;;;5001733;28;20696;-86
2022/03/08 07:21:34;;;;;;;68.90;9.03;;;1.90;4.20;;;;;;5002677;28;20309;-86
2022/03/08 07:23:59;;;;;;;71.27;10.43;;;2.10;1.50;;;;;;5004258;28;20449;-86
2022/03/08 07:26:25;;;;;;;70.47;9.10;;;2.10;1.00;;;;;;5000645;28;20247;-86
2022/03/08 07:28:51;;;;;;;69.20;10.00;;;2.20;1.00;;;;;;5002014;28;20217;-86
2022/03/08 07:31:16;;;;;;;73.50;9.40;;;2.20;1.00;;;;;;5001585;28;20167;-86
2022/03/08 07:33:42;;;;;;;74.20;11.00;;;2.30;1.00;;;;;;5001940;28;20167;-86
2022/03/08 07:36:08;;;;;;;70.30;9.90;;;2.30;1.00;;;;;;5001442;28;20283;-86
2022/03/08 07:38:34;;;;;;;71.20;10.00;;;2.30;1.00;;;;;;5001281;28;20174;-87
2022/03/08 07:41:01;;;;;;;71.40;11.27;;;2.40;1.00;;;;;;5001205;28;20524;-89
2022/03/08 07:43:27;;;;;;;76.40;10.77;;;2.40;1.00;;;;;;5000746;28;20957;-87
2022/03/08 07:45:53;;;;;;;70.90;8.82;;;2.40;1.00;;;;;;4999625;28;20224;-88
2022/03/08 07:48:19;;;;;;;72.97;10.10;;;2.50;1.00;;;;;;5000639;28;20237;-88
2022/03/08 07:50:44;;;;;;;71.20;8.83;;;2.50;1.00;;;;;;5000554;28;20167;-86
2022/03/08 07:53:10;;;;;;;71.20;9.90;;;2.60;1.00;;;;;;5000387;28;20472;-87
2022/03/08 07:55:36;;;;;;;71.80;8.77;;;2.60;1.00;;;;;;4999576;28;20264;-87
2022/03/08 07:58:03;;;;;;;69.30;8.77;;;2.60;1.00;;;;;;5000147;28;20170;-88
2022/03/08 08:00:30;;;;;;;74.63;9.95;;;2.70;1.00;;;;;;4999606;28;20170;-88
2022/03/08 08:02:55;;;;;;;69.68;9.10;;;2.70;1.00;;;;;;4999574;28;20197;-87
2022/03/08 08:05:21;;;;;;;72.73;8.53;;;2.80;1.00;;;;;;5000680;28;20205;-87
2022/03/08 08:07:47;;;;;;;71.80;10.03;;;2.80;1.00;;;;;;5000998;28;20262;-88
2022/03/08 08:10:13;;;;;;;70.87;7.43;;;2.90;1.00;;;;;;4999296;28;20269;-88
2022/03/08 08:12:39;;;;;;;68.82;8.18;;;2.90;1.00;;;;;;5001011;28;20166;-88
2022/03/08 08:15:06;;;;;;;70.50;8.52;;;2.90;1.00;;;;;;5000608;28;20278;-88
2022/03/08 08:17:33;;;;;;;68.47;8.82;;;3.00;1.00;;;;;;5000326;28;20189;-88
2022/03/08 08:19:59;;;;;;;68.40;8.73;;;3.10;1.00;;;;;;4999075;28;20545;-88
2022/03/08 08:22:25;;;;;;;72.80;9.33;;;3.10;1.00;;;;;;5000904;28;20169;-88
2022/03/08 08:24:50;;;;;;;68.37;8.13;;;3.20;1.00;;;;;;4999897;28;20453;-88
2022/03/08 08:27:16;;;;;;;71.37;8.90;;;3.20;1.00;;;;;;4999503;28;20422;-87
2022/03/08 08:29:42;;;;;;;72.63;8.30;;;3.30;1.00;;;;;;4999976;28;20254;-88
2022/03/08 08:32:08;;;;;;;70.00;8.03;;;3.30;1.00;;;;;;4999754;28;20206;-88
2022/03/08 08:34:34;;;;;;;69.13;8.85;;;3.40;1.00;;;;;;5002055;28;20177;-88
2022/03/08 08:36:59;;;;;;;68.30;7.53;;;3.50;1.00;;;;;;5001914;28;20191;-88
2022/03/08 08:39:25;;;;;;;72.10;8.43;;;3.50;1.00;;;;;;5002462;28;20656;-88
2022/03/08 08:41:51;;;;;;;70.27;8.80;;;3.60;1.00;;;;;;5003971;28;20229;-88
2022/03/08 08:44:17;;;;;;;73.57;7.93;;;3.70;1.00;;;;;;5002957;28;20233;-88
2022/03/08 08:46:42;;;;;;;72.05;9.40;;;3.80;1.00;;;;;;5003793;28;20241;-88
2022/03/08 08:49:08;;;;;;;70.27;9.00;;;3.80;1.00;;;;;;5002185;28;20166;-88
2022/03/08 08:51:34;;;;;;;70.07;8.80;;;3.90;1.00;;;;;;5003767;28;20163;-88
2022/03/08 08:54:00;;;;;;;68.20;7.77;;;4.00;1.00;;;;;;5002994;28;20170;-88
2022/03/08 08:56:26;;;;;;;69.90;7.60;;;4.00;1.00;;;;;;5002593;28;20452;-87
2022/03/08 08:58:52;;;;;;;69.13;9.05;;;4.20;1.00;;;;;;5004358;28;20171;-88
2022/03/08 09:01:17;;;;;;;70.87;8.63;;;4.20;1.00;;;;;;5002724;28;20179;-86
2022/03/08 09:03:43;;;;;;;69.60;8.20;;;4.30;1.00;;;;;;5003171;28;20254;-88
2022/03/08 09:06:09;;;;;;;69.27;8.60;;;4.30;1.00;;;;;;5001781;28;20182;-88
2022/03/08 09:08:34;;;;;;;69.80;8.83;;;4.40;1.00;;;;;;5002377;28;20182;-85
2022/03/08 09:11:00;;;;;;;72.10;10.20;;;4.50;1.00;;;;;;5003709;28;20249;-88
2022/03/08 09:13:26;;;;;;;69.27;10.20;;;4.70;1.00;;;;;;5001887;28;20213;-88
2022/03/08 09:15:51;;;;;;;69.67;12.53;;;4.80;1.00;;;;;;5002716;28;20190;-88
2022/03/08 09:18:20;;;;;;;70.80;12.13;;;4.80;1.00;;;;;;5003751;28;20194;-88
2022/03/08 09:20:46;;;;;;;73.57;12.60;;;5.00;1.00;;;;;;5002665;28;20179;-88
2022/03/08 09:23:13;;;;;;;74.63;15.07;;;5.10;1.00;;;;;;5002236;28;20170;-88
2022/03/08 09:25:39;;;;;;;70.45;9.32;;;5.20;1.00;;;;;;5004232;28;20173;-88
2022/03/08 09:28:06;;;;;;;68.70;8.27;;;5.20;1.00;;;;;;5003463;28;20634;-88
2022/03/08 09:30:33;;;;;;;70.20;10.27;;;5.30;1.00;;;;;;5004145;28;20163;-88
2022/03/08 09:33:00;;;;;;;70.97;13.68;;;5.30;1.00;;;;;;5002065;28;20685;-88
2022/03/08 09:35:27;;;;;;;71.15;11.23;;;5.50;1.00;;;;;;5004038;28;20166;-88
2022/03/08 09:37:54;;;;;;;68.45;10.80;;;5.60;1.00;;;;;;5003096;28;20174;-88
2022/03/08 09:40:24;;;;;;;66.22;8.88;;;5.70;1.00;;;;;;5002151;28;20672;-88
2022/03/08 09:42:50;;;;;;;70.50;14.73;;;5.80;1.00;;;;;;5003227;28;20249;-88
2022/03/08 09:45:17;;;;;;;71.18;19.05;;;5.90;1.00;;;;;;5001628;28;20682;-88
2022/03/08 09:47:43;;;;;;;71.15;20.58;;;6.10;1.00;;;;;;5002491;28;20190;-88
2022/03/08 09:50:11;;;;;;;70.85;20.67;;;6.10;1.00;;;;;;5003201;28;20163;-88
2022/03/08 09:52:38;;;;;;;72.25;19.83;;;6.20;1.00;;;;;;5003098;28;20162;-89
2022/03/08 09:55:06;;;;;;;72.47;19.40;;;6.20;1.00;;;;;;5003211;28;20170;-88
2022/03/08 09:57:32;;;;;;;70.32;19.92;;;6.30;1.00;;;;;;5001376;28;20190;-88
2022/03/08 09:59:58;;;;;;;68.57;14.00;;;6.40;1.00;;;;;;5002226;28;20185;-88
2022/03/08 10:02:25;;;;;;;66.45;10.15;;;6.40;1.00;;;;;;5002464;28;20205;-88
2022/03/08 10:05:07;;;;;;;67.07;9.25;;;6.50;1.00;;;;;;5001268;28;20221;-88
2022/03/08 10:07:32;;;;;;;69.50;13.30;;;6.60;1.00;;;;;;5003010;28;20182;-88
2022/03/08 10:09:59;;;;;;;78.00;15.80;;;6.70;1.00;;;;;;5002008;28;20230;-88
2022/03/08 10:12:26;;;;;;;71.75;21.45;;;6.80;1.00;;;;;;5002417;28;20242;-88
2022/03/08 10:14:52;;;;;;;77.28;26.38;;;6.90;1.00;;;;;;5001208;28;20177;-88
2022/03/08 10:17:36;;;;;;;70.05;21.15;;;7.00;1.00;;;;;;5001748;28;20241;-86
2022/03/08 10:20:04;;;;;;;71.40;20.88;;;7.10;1.00;;;;;;5000701;28;20170;-89
2022/03/08 10:22:36;;;;;;;69.63;19.58;;;7.20;1.00;;;;;;5002596;28;20166;-88
2022/03/08 10:25:10;;;;;;;71.68;15.30;;;7.30;1.00;;;;;;5003158;28;20178;-86
2022/03/08 10:27:36;;;;;;;74.07;13.07;;;7.50;1.00;;;;;;5003234;28;20182;-88
2022/03/08 10:30:04;;;;;;;68.37;13.27;;;7.60;1.00;;;;;;5002815;28;20178;-88
2022/03/08 10:32:36;;;;;;;69.18;15.05;;;7.70;1.00;;;;;;5002753;28;20511;-85
2022/03/08 10:35:03;;;;;;;70.00;16.20;;;7.70;1.00;;;;;;5002322;28;20159;-86
2022/03/08 10:37:35;;;;;;;71.50;23.38;;;7.70;1.00;;;;;;4999843;28;20249;-88
2022/03/08 10:40:06;;;;;;;69.85;18.70;;;7.80;1.00;;;;;;5002097;28;20158;-86
2022/03/08 10:42:37;;;;;;;71.15;20.30;;;7.90;1.00;;;;;;5003007;28;20640;-86
2022/03/08 10:45:21;;;;;;;73.63;14.98;;;8.10;1.00;;;;;;5000924;28;20225;-88
2022/03/08 10:47:51;;;;;;;67.35;11.57;;;8.10;1.00;;;;;;5001454;28;20582;-85
2022/03/08 10:50:19;;;;;;;68.05;10.88;;;8.20;1.00;;;;;;5004056;28;20163;-86
2022/03/08 10:52:47;;;;;;;68.28;12.60;;;8.20;1.00;;;;;;5002277;28;20571;-86
2022/03/08 10:55:18;;;;;;;68.43;14.38;;;8.30;1.00;;;;;;5001968;28;20162;-86
2022/03/08 10:57:50;;;;;;;69.43;13.63;;;8.30;1.00;;;;;;5003241;28;20186;-86
2022/03/08 11:00:22;;;;;;;69.03;16.27;;;8.40;1.00;;;;;;5001568;28;20627;-86
2022/03/08 11:02:55;;;;;;;73.95;11.23;;;8.40;1.00;;;;;;5000533;28;20178;-86
2022/03/08 11:05:32;;;;;;;71.05;22.77;;;8.30;1.00;;;;;;5001471;28;20204;-86
2022/03/08 11:08:17;;;;;;;71.88;20.05;;;8.40;1.00;;;;;;5086148;23;20177;-83
2022/03/08 11:10:47;;;;;;;71.18;23.50;;;8.50;1.00;;;;;;4979176;28;20189;-82
2022/03/08 11:13:15;;;;;;;69.60;14.88;;;8.60;1.00;;;;;;4995530;28;20171;-82
2022/03/08 11:15:52;;;;;;;73.50;24.00;;;8.70;1.00;;;;;;4980515;28;20174;-83
2022/03/08 11:18:37;;;;;;;;;;;;;;;;;;;;;
2022/03/08 11:21:04;;;;;;;69.65;17.05;;;8.80;1.00;;;;;;4980354;28;20699;-85
2022/03/08 11:23:32;;;;;;;68.60;15.45;;;8.80;1.00;;;;;;4980264;28;20199;-82
2022/03/08 11:25:59;;;;;;;67.65;13.32;;;8.90;1.00;;;;;;4996686;28;20218;-85
2022/03/08 11:31:03;;;;;;;66.95;9.85;;;8.90;1.00;;;;;;5145864;23;20256;-84
2022/03/08 11:34:20;;;;;;;66.63;8.88;;;9.10;1.00;;;;;;4999816;28;20198;-84
2022/03/08 11:36:58;;;;;;;65.90;12.13;;;9.20;1.00;;;;;;4998525;28;20186;-85
2022/03/08 11:39:40;;;;;;;68.65;10.18;;;9.30;1.00;;;;;;5000725;28;20170;-84
2022/03/08 11:42:39;;;;;;;;;;;;;;;;;;;;;
2022/03/08 11:45:53;;;;;;;67.72;13.80;;;9.50;1.00;;;;;;5000262;28;20265;-84
2022/03/08 11:48:27;;;;;;;68.10;13.93;;;9.60;1.00;;;;;;4979120;28;20279;-84
2022/03/08 11:51:09;;;;;;;72.07;13.45;;;9.60;1.00;;;;;;4978747;28;20180;-84
2022/03/08 11:53:52;;;;;;;69.35;12.20;;;9.60;1.00;;;;;;4999268;28;20637;-84
2022/03/08 11:56:23;;;;;;;68.28;12.10;;;9.60;1.00;;;;;;5000328;28;20190;-84
2022/03/08 11:59:12;;;;;;;67.70;12.93;;;9.70;1.00;;;;;;4982972;28;20630;-84
2022/03/08 12:01:41;;;;;;;67.88;12.65;;;9.60;1.00;;;;;;4999649;28;20155;-84
2022/03/08 12:04:14;;;;;;;66.63;10.10;;;9.70;1.00;;;;;;4998393;28;20186;-84
2022/03/08 12:06:41;;;;;;;69.05;10.43;;;9.80;1.00;;;;;;5002891;28;20209;-84
2022/03/08 12:09:18;;;;;;;66.50;7.90;;;10.00;1.00;;;;;;5005552;28;20170;-84
2022/03/08 12:11:50;;;;;;;71.88;13.63;;;10.20;1.00;;;;;;5005581;28;20162;-84
2022/03/08 12:15:18;;;;;;;67.35;11.90;;;10.20;1.00;;;;;;5004865;28;20174;-84
2022/03/08 12:18:29;;;;;;;68.55;15.45;;;10.10;1.00;;;;;;5003267;28;20212;-84
2022/03/08 12:21:20;;;;;;;68.30;12.43;;;10.30;1.00;;;;;;5000715;28;20182;-84
2022/03/08 12:24:05;;;;;;;68.30;14.50;;;10.10;1.00;;;;;;5004668;28;20197;-84
2022/03/08 12:26:54;;;;;;;68.65;14.90;;;10.20;1.00;;;;;;5006468;28;20186;-84
2022/03/08 12:29:30;;;;;;;67.00;12.95;;;10.20;1.00;;;;;;5004868;28;20166;-84
2022/03/08 12:31:59;;;;;;;69.18;12.63;;;10.20;1.00;;;;;;5004664;28;20182;-84
2022/03/08 12:34:38;;;;;;;68.03;13.90;;;10.00;1.00;;;;;;5005981;28;20186;-84
2022/03/08 12:37:18;;;;;;;69.90;12.95;;;10.10;1.00;;;;;;5005899;28;20178;-84
2022/03/08 12:39:47;;;;;;;67.72;13.35;;;10.10;1.00;;;;;;5005816;28;20154;-84
2022/03/08 12:45:46;;;;;;;67.75;15.15;;;10.10;1.00;;;;;;4968719;28;20184;-84
2022/03/08 12:48:21;;;;;;;65.07;8.20;;;10.40;1.00;;;;;;5004710;28;20300;-85
2022/03/08 12:50:59;;;;;;;;;;;;;;;;;;;;;
2022/03/08 12:53:30;;;;;;;69.68;14.88;;;10.30;1.00;;;;;;5005130;28;20233;-84
2022/03/08 12:55:59;;;;;;;66.25;8.65;;;10.50;1.00;;;;;;5003397;28;20194;-84
2022/03/08 12:58:31;;;;;;;68.22;9.25;;;10.60;1.00;;;;;;5005451;28;20167;-85
2022/03/08 13:01:02;;;;;;;66.43;8.35;;;10.80;1.00;;;;;;5005036;28;20167;-84
2022/03/08 13:03:31;;;;;;;69.45;7.70;;;10.70;1.00;;;;;;5005501;28;20306;-85